createdAt,value
2023-05-12T00:01:45.113Z,101673.84
2023-05-12T00:04:28.569Z,101675.44
2023-05-12T00:06:56.605Z,101666.53
2023-05-12T00:09:24.719Z,101670.06
2023-05-12T00:11:53.289Z,101670.94
2023-05-12T00:14:23.017Z,101669.78
2023-05-12T00:16:52.535Z,101671.59
2023-05-12T00:19:21.316Z,101670.66
2023-05-12T00:21:49.224Z,101667.47
2023-05-12T00:24:17.467Z,101667.25
2023-05-12T00:26:47.701Z,101667.09
2023-05-12T00:29:15.564Z,101668.59
2023-05-12T00:31:45.030Z,101670.31
2023-05-12T00:34:13.118Z,101666.75
2023-05-12T00:36:41.403Z,101665.81
2023-05-12T00:39:10.209Z,101671.31
2023-05-12T00:41:40.571Z,101667.50
2023-05-12T00:44:08.573Z,101668.59
2023-05-12T00:46:36.881Z,101676.34
2023-05-12T00:49:06.733Z,101670.31
2023-05-12T00:51:34.866Z,101676.56
2023-05-12T00:54:03.707Z,101676.34
2023-05-12T00:56:35.421Z,101677.75
2023-05-12T00:59:03.543Z,101675.91
2023-05-12T01:01:31.853Z,101678.50
2023-05-12T01:04:00.346Z,101682.38
2023-05-12T01:06:34.344Z,101680.97
2023-05-12T01:09:02.945Z,101685.06
2023-05-12T01:11:31.187Z,101675.94
2023-05-12T01:13:59.070Z,101683.00
2023-05-12T01:16:32.938Z,101680.25
2023-05-12T01:19:03.635Z,101682.81
2023-05-12T01:21:33.607Z,101686.03
2023-05-12T01:24:08.791Z,101680.00
2023-05-12T01:26:38.753Z,101686.16
2023-05-12T01:29:08.679Z,101682.59
2023-05-12T01:31:37.119Z,101690.78
2023-05-12T01:34:05.811Z,101689.72
2023-05-12T01:36:33.836Z,101694.00
2023-05-12T01:39:02.176Z,101695.28
2023-05-12T01:41:30.303Z,101694.66
2023-05-12T01:43:59.612Z,101702.28
2023-05-12T01:46:27.583Z,101699.50
2023-05-12T01:48:56.037Z,101704.00
2023-05-12T01:51:24.078Z,101701.31
2023-05-12T01:53:52.322Z,101702.41
2023-05-12T01:56:21.892Z,101704.75
2023-05-12T01:58:50.627Z,101712.53
2023-05-12T02:01:27.646Z,101704.13
2023-05-12T02:03:56.122Z,101712.31
2023-05-12T02:06:24.208Z,101713.72
2023-05-12T02:08:52.326Z,101713.81
2023-05-12T02:11:21.712Z,101705.38
2023-05-12T02:13:51.269Z,101717.03
2023-05-12T02:16:21.460Z,101718.13
2023-05-12T02:18:50.150Z,101721.53
2023-05-12T02:21:18.369Z,101730.50
2023-05-12T02:23:46.671Z,101735.13
2023-05-12T02:26:16.511Z,101730.19
2023-05-12T02:28:44.872Z,101726.50
2023-05-12T02:31:12.954Z,101724.13
2023-05-12T02:33:42.336Z,101725.72
2023-05-12T02:36:10.625Z,101723.03
2023-05-12T02:38:40.172Z,101723.91
2023-05-12T02:41:08.270Z,101721.00
2023-05-12T02:43:36.374Z,101725.84
2023-05-12T02:46:04.385Z,101727.47
2023-05-12T02:48:32.304Z,101729.84
2023-05-12T02:51:01.569Z,101723.91
2023-05-12T02:53:29.630Z,101732.63
2023-05-12T02:55:59.631Z,101724.03
2023-05-12T02:58:29.564Z,101730.91
2023-05-12T03:01:09.320Z,101728.34
2023-05-12T03:03:39.278Z,101731.56
2023-05-12T03:06:09.465Z,101731.47
2023-05-12T03:08:38.224Z,101737.38
2023-05-12T03:11:06.348Z,101732.75
2023-05-12T03:13:34.621Z,101732.19
2023-05-12T03:16:02.589Z,101731.31
2023-05-12T03:18:30.579Z,101734.47
2023-05-12T03:20:58.552Z,101737.69
2023-05-12T03:23:27.958Z,101735.66
2023-05-12T03:25:55.938Z,101736.94
2023-05-12T03:28:24.817Z,101744.16
2023-05-12T03:30:52.965Z,101746.72
2023-05-12T03:33:20.972Z,101738.34
2023-05-12T03:35:48.890Z,101744.38
2023-05-12T03:38:17.122Z,101742.97
2023-05-12T03:40:49.188Z,101747.94
2023-05-12T03:43:17.361Z,101744.03
2023-05-12T03:45:45.579Z,101745.03
2023-05-12T03:48:14.754Z,101742.31
2023-05-12T03:50:42.904Z,101742.00
2023-05-12T03:53:10.885Z,101743.72
2023-05-12T03:55:39.159Z,101750.94
2023-05-12T03:58:08.794Z,101752.56
2023-05-12T04:00:39.968Z,101755.56
2023-05-12T04:03:08.265Z,101757.94
2023-05-12T04:05:39.552Z,101760.13
2023-05-12T04:08:07.934Z,101756.94
2023-05-12T04:10:40.107Z,101762.25
2023-05-12T04:13:09.908Z,101766.53
2023-05-12T04:15:37.877Z,101756.41
2023-05-12T04:18:05.862Z,101764.81
2023-05-12T04:20:33.929Z,101765.25
2023-05-12T04:23:02.061Z,101768.81
2023-05-12T04:25:30.142Z,101772.56
2023-05-12T04:27:58.185Z,101772.56
2023-05-12T04:30:30.313Z,101782.28
2023-05-12T04:32:58.358Z,101779.81
2023-05-12T04:35:26.298Z,101790.25
2023-05-12T04:37:54.298Z,101786.81
2023-05-12T04:40:22.509Z,101788.06
2023-05-12T04:42:54.359Z,101785.09
2023-05-12T04:45:22.792Z,101787.53
2023-05-12T04:47:56.316Z,101792.75
2023-05-12T04:50:24.540Z,101791.75
2023-05-12T04:52:52.488Z,101797.16
2023-05-12T04:55:20.792Z,101800.47
2023-05-12T04:57:51.155Z,101800.81
2023-05-12T05:00:19.444Z,101805.09
2023-05-12T05:02:47.532Z,101811.06
2023-05-12T05:05:17.349Z,101814.72
2023-05-12T05:07:45.416Z,101821.38
2023-05-12T05:10:13.353Z,101824.31
2023-05-12T05:12:42.107Z,101829.69
2023-05-12T05:15:11.904Z,101823.53
2023-05-12T05:17:41.052Z,101824.03
2023-05-12T05:20:12.017Z,101818.31
2023-05-12T05:22:42.539Z,101823.59
2023-05-12T05:25:11.943Z,101833.81
2023-05-12T05:27:41.016Z,101826.16
2023-05-12T05:30:10.089Z,101828.94
2023-05-12T05:32:40.458Z,101837.22
2023-05-12T05:35:09.132Z,101836.09
2023-05-12T05:37:37.590Z,101839.53
2023-05-12T05:40:09.401Z,101846.38
2023-05-12T05:42:37.341Z,101843.88
2023-05-12T05:45:06.216Z,101855.50
2023-05-12T05:47:34.488Z,101845.47
2023-05-12T05:50:02.567Z,101858.75
2023-05-12T05:52:30.773Z,101848.22
2023-05-12T05:54:58.927Z,101856.72
2023-05-12T05:57:28.345Z,101859.09
2023-05-12T05:59:56.764Z,101859.78
2023-05-12T06:02:25.246Z,101865.94
2023-05-12T06:04:53.432Z,101867.63
2023-05-12T06:07:22.263Z,101869.97
2023-05-12T06:09:50.347Z,101870.38
2023-05-12T06:12:18.450Z,101877.03
2023-05-12T06:14:47.802Z,101875.72
2023-05-12T06:17:15.886Z,101881.88
2023-05-12T06:19:47.781Z,101876.75
2023-05-12T06:22:16.117Z,101877.97
2023-05-12T06:24:44.533Z,101887.31
2023-05-12T06:27:13.011Z,101882.38
2023-05-12T06:29:41.333Z,101885.59
2023-05-12T06:32:11.044Z,101892.97
2023-05-12T06:34:39.137Z,101890.13
2023-05-12T06:37:07.382Z,101887.31
2023-05-12T06:39:35.890Z,101895.28
2023-05-12T06:42:03.969Z,101896.44
2023-05-12T06:44:32.110Z,101898.88
2023-05-12T06:47:00.175Z,101904.00
2023-05-12T06:49:31.294Z,101905.22
2023-05-12T06:51:59.197Z,101902.28
2023-05-12T06:54:27.135Z,101898.75
2023-05-12T06:56:55.084Z,101904.31
2023-05-12T06:59:22.998Z,101902.94
2023-05-12T07:01:51.324Z,101904.34
2023-05-12T07:04:19.446Z,101906.06
2023-05-12T07:06:48.996Z,101905.19
2023-05-12T07:09:19.129Z,101901.72
2023-05-12T07:11:47.859Z,101900.25
2023-05-12T07:14:19.069Z,101901.56
2023-05-12T07:16:46.993Z,101906.66
2023-05-12T07:19:15.194Z,101908.84
2023-05-12T07:21:43.443Z,101911.44
2023-05-12T07:24:13.111Z,101914.28
2023-05-12T07:26:41.681Z,101906.16
2023-05-12T07:29:13.399Z,101907.72
2023-05-12T07:31:44.790Z,101907.72
2023-05-12T07:34:13.282Z,101908.38
2023-05-12T07:36:41.273Z,101905.88
2023-05-12T07:39:09.373Z,101914.94
2023-05-12T07:41:39.676Z,101915.22
2023-05-12T07:44:08.349Z,101916.66
2023-05-12T07:46:36.582Z,101922.38
2023-05-12T07:49:07.526Z,101910.34
2023-05-12T07:51:35.665Z,101919.63
2023-05-12T07:54:04.900Z,101920.38
2023-05-12T07:56:32.983Z,101920.75
2023-05-12T07:59:02.560Z,101924.06
2023-05-12T08:01:30.527Z,101929.16
2023-05-12T08:03:58.762Z,101924.94
2023-05-12T08:06:26.836Z,101925.44
2023-05-12T08:08:58.340Z,101923.13
2023-05-12T08:11:26.592Z,101920.06
2023-05-12T08:13:55.017Z,101921.16
2023-05-12T08:16:24.792Z,101927.31
2023-05-12T08:18:52.826Z,101927.91
2023-05-12T08:21:20.832Z,101925.41
2023-05-12T08:23:51.203Z,101925.38
2023-05-12T08:26:19.304Z,101923.03
2023-05-12T08:28:47.144Z,101927.53
2023-05-12T08:31:15.229Z,101919.91
2023-05-12T08:33:46.388Z,101923.31
2023-05-12T08:36:20.324Z,101919.09
2023-05-12T08:38:48.512Z,101923.56
2023-05-12T08:41:24.281Z,101917.91
2023-05-12T08:43:53.421Z,101918.78
2023-05-12T08:46:22.212Z,101915.84
2023-05-12T08:48:53.414Z,101920.81
2023-05-12T08:51:23.302Z,101923.13
2023-05-12T08:53:52.383Z,101919.94
2023-05-12T08:58:53.681Z,101915.91
2023-05-12T09:01:23.480Z,101913.19
2023-05-12T09:03:57.389Z,101920.66
2023-05-12T09:06:25.354Z,101917.25
2023-05-12T09:08:53.430Z,101923.44
2023-05-12T09:11:24.203Z,101913.66
2023-05-12T09:13:56.226Z,101910.88
2023-05-12T09:16:40.034Z,101909.81
2023-05-12T09:19:09.736Z,101912.09
2023-05-12T09:21:37.953Z,101911.84
2023-05-12T09:24:07.842Z,101915.56
2023-05-12T09:26:47.528Z,101914.50
2023-05-12T09:29:27.782Z,101911.28
2023-05-12T09:32:00.849Z,101908.09
2023-05-12T09:34:31.699Z,101911.53
2023-05-12T09:37:02.201Z,101905.59
2023-05-12T09:39:30.176Z,101920.03
2023-05-12T09:41:58.274Z,101907.03
2023-05-12T09:44:29.018Z,101916.16
2023-05-12T09:47:07.973Z,101912.66
2023-05-12T09:49:38.543Z,101910.91
2023-05-12T09:52:07.494Z,101903.97
2023-05-12T09:54:36.489Z,101913.53
2023-05-12T09:57:06.946Z,101915.72
2023-05-12T09:59:36.632Z,101914.13
2023-05-12T10:02:07.462Z,101908.59
2023-05-12T10:04:45.762Z,101907.75
2023-05-12T10:07:15.619Z,101912.25
2023-05-12T10:09:45.212Z,101914.22
2023-05-12T10:12:14.437Z,101914.31
2023-05-12T10:14:42.806Z,101907.66
2023-05-12T10:17:12.535Z,101899.25
2023-05-12T10:19:43.405Z,101903.34
2023-05-12T10:22:12.328Z,101903.63
2023-05-12T10:24:42.089Z,101903.28
2023-05-12T10:27:11.954Z,101911.22
2023-05-12T10:29:40.521Z,101906.53
2023-05-12T10:32:08.659Z,101910.38
2023-05-12T10:34:38.892Z,101909.06
2023-05-12T10:37:11.219Z,101904.72
2023-05-12T10:39:49.341Z,101903.91
2023-05-12T10:42:23.056Z,101904.78
2023-05-12T10:44:52.132Z,101905.28
2023-05-12T10:47:20.606Z,101895.75
2023-05-12T10:49:59.739Z,101904.25
2023-05-12T10:52:29.154Z,101906.44
2023-05-12T10:55:03.453Z,101903.69
2023-05-12T10:57:33.457Z,101901.66
2023-05-12T11:00:03.844Z,101903.03
2023-05-12T11:02:35.673Z,101899.59
2023-05-12T11:05:17.477Z,101898.06
2023-05-12T11:07:52.504Z,101897.88
2023-05-12T11:10:21.979Z,101905.16
2023-05-12T11:12:50.967Z,101902.16
2023-05-12T11:15:19.277Z,101908.31
2023-05-12T11:17:47.960Z,101902.63
2023-05-12T11:20:31.132Z,101898.41
2023-05-12T11:23:00.942Z,101907.63
2023-05-12T11:25:30.477Z,101898.78
2023-05-12T11:28:06.950Z,101896.84
2023-05-12T11:30:54.908Z,101908.75
2023-05-12T11:33:25.160Z,101901.09
2023-05-12T11:36:14.559Z,101912.06
2023-05-12T11:38:56.564Z,101903.47
2023-05-12T11:42:36.589Z,101909.41
2023-05-12T11:45:10.176Z,101901.22
2023-05-12T11:47:52.118Z,101902.66
2023-05-12T11:50:43.059Z,101912.38
2023-05-12T11:53:22.778Z,101907.75
2023-05-12T11:56:04.297Z,101925.72
2023-05-12T11:58:45.146Z,101919.09
2023-05-12T12:01:13.102Z,101920.09
2023-05-12T12:03:48.937Z,101916.84
2023-05-12T12:06:17.240Z,101912.19
2023-05-12T12:08:55.206Z,101914.31
2023-05-12T12:11:28.997Z,101908.22
2023-05-12T12:13:57.774Z,101911.31
2023-05-12T12:16:26.692Z,101903.91
2023-05-12T12:18:55.256Z,101913.91
2023-05-12T12:21:44.624Z,101899.25
2023-05-12T12:24:13.743Z,101912.06
2023-05-12T12:26:43.312Z,101912.81
2023-05-12T12:29:13.003Z,101915.59
2023-05-12T12:31:44.504Z,101909.44
2023-05-12T12:34:12.598Z,101913.47
2023-05-12T12:36:41.131Z,101906.00
2023-05-12T12:39:09.187Z,101910.03
2023-05-12T12:41:37.446Z,101916.19
2023-05-12T12:44:07.361Z,101911.09
2023-05-12T12:46:35.372Z,101916.16
2023-05-12T12:49:03.457Z,101906.13
2023-05-12T12:51:45.075Z,101913.66
2023-05-12T12:54:13.432Z,101913.84
2023-05-12T12:56:41.803Z,101907.75
2023-05-12T12:59:11.887Z,101910.81
2023-05-12T13:01:40.290Z,101919.75
2023-05-12T13:04:08.162Z,101916.88
2023-05-12T13:06:36.147Z,101911.31
2023-05-12T13:09:04.583Z,101911.41
2023-05-12T13:11:32.535Z,101903.78
2023-05-12T13:14:02.302Z,101908.25
2023-05-12T13:16:31.772Z,101905.16
2023-05-12T13:19:00.053Z,101894.97
2023-05-12T13:21:28.727Z,101916.38
2023-05-12T13:23:56.778Z,101890.75
2023-05-12T13:26:24.980Z,101896.69
2023-05-12T13:28:52.834Z,101895.56
2023-05-12T13:31:21.030Z,101891.22
2023-05-12T13:33:50.546Z,101895.25
2023-05-12T13:36:18.693Z,101893.78
2023-05-12T13:38:49.464Z,101891.75
2023-05-12T13:41:17.418Z,101889.81
2023-05-12T13:43:45.363Z,101903.28
2023-05-12T13:46:13.406Z,101893.19
2023-05-12T13:48:42.059Z,101903.44
2023-05-12T13:51:12.030Z,101904.31
2023-05-12T13:53:40.294Z,101900.22
2023-05-12T13:56:09.568Z,101895.72
2023-05-12T13:58:37.559Z,101892.28
2023-05-12T14:01:07.338Z,101890.41
2023-05-12T14:03:37.292Z,101885.34
2023-05-12T14:06:06.078Z,101893.97
2023-05-12T14:08:36.453Z,101886.16
2023-05-12T14:11:04.436Z,101892.97
2023-05-12T14:13:33.212Z,101882.19
2023-05-12T14:16:01.332Z,101885.13
2023-05-12T14:18:29.271Z,101881.31
2023-05-12T14:20:57.756Z,101893.69
2023-05-12T14:23:26.031Z,101892.69
2023-05-12T14:25:55.676Z,101885.34
2023-05-12T14:28:24.525Z,101895.38
2023-05-12T14:30:53.662Z,101894.22
2023-05-12T14:33:21.853Z,101890.03
2023-05-12T14:35:59.421Z,101895.25
2023-05-12T14:38:38.615Z,101886.59
2023-05-12T14:41:08.610Z,101893.13
2023-05-12T14:43:36.948Z,101892.69
2023-05-12T14:46:06.259Z,101898.63
2023-05-12T14:48:35.180Z,101885.00
2023-05-12T14:51:03.541Z,101894.31
2023-05-12T14:53:34.530Z,101894.09
2023-05-12T14:56:03.104Z,101898.66
2023-05-12T14:58:33.482Z,101894.03
2023-05-12T15:01:06.822Z,101903.25
2023-05-12T15:03:36.097Z,101898.41
2023-05-12T15:06:08.225Z,101900.09
2023-05-12T15:08:36.371Z,101903.25
2023-05-12T15:11:04.752Z,101905.41
2023-05-12T15:13:35.393Z,101899.81
2023-05-12T15:16:04.721Z,101906.41
2023-05-12T15:18:33.420Z,101902.25
2023-05-12T15:21:01.798Z,101903.97
2023-05-12T15:23:29.861Z,101898.47
2023-05-12T15:25:59.401Z,101900.03
2023-05-12T15:28:27.695Z,101910.31
2023-05-12T15:30:57.985Z,101897.81
2023-05-12T15:33:26.160Z,101889.22
2023-05-12T15:35:54.157Z,101895.06
2023-05-12T15:38:22.287Z,101906.97
2023-05-12T15:40:50.342Z,101886.13
2023-05-12T15:43:18.968Z,101896.78
2023-05-12T15:45:47.158Z,101899.38
2023-05-12T15:48:16.640Z,101890.09
2023-05-12T15:50:44.727Z,101902.66
2023-05-12T15:53:12.723Z,101899.09
2023-05-12T15:55:40.836Z,101897.81
2023-05-12T15:58:09.188Z,101900.53
2023-05-12T16:00:37.478Z,101910.59
2023-05-12T16:03:05.725Z,101919.19
2023-05-12T16:05:38.835Z,101908.59
2023-05-12T16:08:06.761Z,101906.47
2023-05-12T16:10:35.209Z,101912.44
2023-05-12T16:13:04.427Z,101914.75
2023-05-12T16:15:33.632Z,101904.44
2023-05-12T16:18:01.877Z,101909.63
2023-05-12T16:20:30.168Z,101898.34
2023-05-12T16:23:04.836Z,101900.03
2023-05-12T16:25:35.927Z,101896.03
2023-05-12T16:28:04.089Z,101901.88
2023-05-12T16:30:33.302Z,101899.63
2023-05-12T16:33:01.395Z,101896.47
2023-05-12T16:35:30.501Z,101902.50
2023-05-12T16:37:59.839Z,101895.06
2023-05-12T16:40:28.200Z,101894.91
2023-05-12T16:42:56.606Z,101895.47
2023-05-12T16:45:25.573Z,101897.06
2023-05-12T16:47:54.046Z,101899.75
2023-05-12T16:50:21.956Z,101898.91
2023-05-12T16:52:50.183Z,101902.47
2023-05-12T16:55:20.127Z,101893.88
2023-05-12T16:57:48.171Z,101897.03
2023-05-12T17:00:17.805Z,101893.19
2023-05-12T17:02:46.132Z,101902.28
2023-05-12T17:05:14.578Z,101890.41
2023-05-12T17:07:42.614Z,101898.69
2023-05-12T17:10:12.147Z,101904.72
2023-05-12T17:12:41.580Z,101899.66
2023-05-12T17:15:11.589Z,101901.53
2023-05-12T17:17:39.736Z,101902.94
2023-05-12T17:20:11.317Z,101906.22
2023-05-12T17:22:44.050Z,101910.22
2023-05-12T17:25:14.220Z,101917.19
2023-05-12T17:27:44.942Z,101907.91
2023-05-12T17:30:14.218Z,101913.41
2023-05-12T17:32:43.527Z,101914.09
2023-05-12T17:35:12.245Z,101921.16
2023-05-12T17:37:40.516Z,101920.72
2023-05-12T17:40:09.981Z,101920.25
2023-05-12T17:42:38.233Z,101925.63
2023-05-12T17:45:09.841Z,101929.66
2023-05-12T17:47:38.126Z,101928.00
2023-05-12T17:50:07.313Z,101926.41
2023-05-12T17:52:35.408Z,101931.66
2023-05-12T17:55:03.416Z,101940.47
2023-05-12T17:57:32.056Z,101931.88
2023-05-12T18:00:00.318Z,101937.81
2023-05-12T18:02:29.825Z,101936.09
2023-05-12T18:04:57.786Z,101936.81
2023-05-12T18:07:26.011Z,101940.53
2023-05-12T18:09:54.233Z,101932.53
2023-05-12T18:12:22.372Z,101946.25
2023-05-12T18:14:52.107Z,101945.88
2023-05-12T18:17:20.357Z,101940.72
2023-05-12T18:19:49.825Z,101944.56
2023-05-12T18:22:18.439Z,101940.50
2023-05-12T18:24:47.095Z,101938.72
2023-05-12T18:27:15.086Z,101952.75
2023-05-12T18:29:43.133Z,101950.69
2023-05-12T18:32:11.245Z,101954.25
2023-05-12T18:34:39.272Z,101955.00
2023-05-12T18:37:08.715Z,101958.22
2023-05-12T18:39:37.083Z,101961.31
2023-05-12T18:42:05.544Z,101959.88
2023-05-12T18:44:38.480Z,101957.38
2023-05-12T18:47:07.240Z,101971.81
2023-05-12T18:49:35.978Z,101962.19
2023-05-12T18:52:04.879Z,101973.41
2023-05-12T18:54:40.238Z,101967.84
2023-05-12T18:57:08.335Z,101975.34
2023-05-12T18:59:36.442Z,101979.63
2023-05-12T19:02:04.836Z,101979.28
2023-05-12T19:04:33.507Z,101982.28
2023-05-12T19:07:01.465Z,101985.13
2023-05-12T19:09:29.460Z,101987.34
2023-05-12T19:11:58.853Z,101994.34
2023-05-12T19:14:27.041Z,101997.50
2023-05-12T19:16:54.979Z,101990.53
2023-05-12T19:19:23.418Z,102000.47
2023-05-12T19:21:52.009Z,101998.25
2023-05-12T19:24:19.967Z,102006.56
2023-05-12T19:26:48.017Z,101998.06
2023-05-12T19:29:17.279Z,102004.00
2023-05-12T19:31:45.665Z,102003.13
2023-05-12T19:34:14.144Z,102007.03
2023-05-12T19:36:43.460Z,102008.69
2023-05-12T19:39:11.598Z,102006.56
2023-05-12T19:41:41.307Z,102013.94
2023-05-12T19:44:10.133Z,102015.53
2023-05-12T19:46:40.349Z,102018.59
2023-05-12T19:49:10.225Z,102018.34
2023-05-12T19:51:38.540Z,102019.22
2023-05-12T19:54:08.764Z,102020.72
2023-05-12T19:56:44.444Z,102025.75
2023-05-12T19:59:12.704Z,102030.38
2023-05-12T20:01:42.389Z,102023.47
2023-05-12T20:04:10.727Z,102025.09
2023-05-12T20:06:38.930Z,102030.16
2023-05-12T20:09:08.077Z,102037.16
2023-05-12T20:11:36.248Z,102026.19
2023-05-12T20:14:04.336Z,102024.31
2023-05-12T20:16:34.842Z,102025.41
2023-05-12T20:19:04.438Z,102030.69
2023-05-12T20:21:33.383Z,102032.09
2023-05-12T20:24:01.299Z,102032.66
2023-05-12T20:26:30.743Z,102039.44
2023-05-12T20:29:00.552Z,102034.16
2023-05-12T20:31:29.165Z,102032.22
2023-05-12T20:33:57.968Z,102043.22
2023-05-12T20:36:27.332Z,102044.94
2023-05-12T20:38:55.841Z,102048.56
2023-05-12T20:41:24.101Z,102057.91
2023-05-12T20:43:52.197Z,102061.69
2023-05-12T20:46:21.178Z,102066.06
2023-05-12T20:48:50.079Z,102062.31
2023-05-12T20:51:18.396Z,102064.53
2023-05-12T20:53:48.450Z,102062.91
2023-05-12T20:56:17.490Z,102066.56
2023-05-12T20:58:45.498Z,102069.56
2023-05-12T21:01:14.675Z,102067.72
2023-05-12T21:03:43.239Z,102072.06
2023-05-12T21:06:12.877Z,102068.88
2023-05-12T21:08:41.030Z,102071.88
2023-05-12T21:11:17.259Z,102069.97
2023-05-12T21:13:46.994Z,102072.66
2023-05-12T21:16:15.330Z,102072.19
2023-05-12T21:18:45.461Z,102067.38
2023-05-12T21:21:13.722Z,102075.63
2023-05-12T21:23:41.923Z,102082.00
2023-05-12T21:26:11.732Z,102086.34
2023-05-12T21:28:42.634Z,102082.22
2023-05-12T21:31:11.063Z,102076.66
2023-05-12T21:33:39.338Z,102079.91
2023-05-12T21:36:08.040Z,102078.09
2023-05-12T21:38:37.035Z,102073.84
2023-05-12T21:41:05.061Z,102077.63
2023-05-12T21:43:33.759Z,102089.88
2023-05-12T21:46:05.905Z,102086.31
2023-05-12T21:48:35.004Z,102087.09
2023-05-12T21:51:04.738Z,102087.00
2023-05-12T21:53:32.879Z,102084.72
2023-05-12T21:56:00.735Z,102075.56
2023-05-12T21:58:28.953Z,102082.97
2023-05-12T22:00:57.463Z,102085.88
2023-05-12T22:03:26.926Z,102083.16
2023-05-12T22:05:54.991Z,102085.28
2023-05-12T22:08:23.326Z,102087.47
2023-05-12T22:10:53.700Z,102081.34
2023-05-12T22:13:24.931Z,102086.16
2023-05-12T22:15:53.522Z,102087.00
2023-05-12T22:18:22.433Z,102093.94
2023-05-12T22:20:52.507Z,102091.81
2023-05-12T22:23:21.462Z,102092.19
2023-05-12T22:25:49.476Z,102091.41
2023-05-12T22:28:18.227Z,102088.22
2023-05-12T22:30:47.578Z,102099.06
2023-05-12T22:33:15.777Z,102094.56
2023-05-12T22:35:43.829Z,102100.88
2023-05-12T22:38:13.626Z,102103.38
2023-05-12T22:40:42.972Z,102107.13
2023-05-12T22:43:13.053Z,102101.91
2023-05-12T22:45:41.374Z,102102.69
2023-05-12T22:48:10.047Z,102106.25
2023-05-12T22:50:38.708Z,102105.69
2023-05-12T22:53:07.310Z,102096.84
2023-05-12T22:55:36.898Z,102104.94
2023-05-12T22:58:05.589Z,102102.53
2023-05-12T23:00:34.952Z,102106.34
2023-05-12T23:03:03.478Z,102108.00
2023-05-12T23:05:32.484Z,102106.94
2023-05-12T23:08:00.560Z,102106.72
2023-05-12T23:10:28.561Z,102095.50
2023-05-12T23:12:58.300Z,102101.66
2023-05-12T23:15:26.504Z,102101.66
2023-05-12T23:17:58.979Z,102103.06
2023-05-12T23:20:28.738Z,102101.16
2023-05-12T23:22:57.434Z,102100.31
2023-05-12T23:25:25.461Z,102097.19
2023-05-12T23:27:54.536Z,102101.69
2023-05-12T23:30:24.648Z,102106.38
2023-05-12T23:32:53.229Z,102109.59
2023-05-12T23:35:22.797Z,102099.91
2023-05-12T23:37:50.928Z,102100.75
2023-05-12T23:40:22.279Z,102101.44
2023-05-12T23:42:51.581Z,102092.09
2023-05-12T23:45:20.226Z,102101.53
2023-05-12T23:47:50.532Z,102100.59
2023-05-12T23:50:22.052Z,102099.19
2023-05-12T23:52:53.067Z,102098.25
2023-05-12T23:55:21.314Z,102103.78
2023-05-12T23:57:49.348Z,102099.63
